Time;durP1;ratioP1;P1;durP2;ratioP2;P2;SDS_P1;SDS_P2;PMS_P1;PMS_P2;Temp;Humidity;BMP_temperature;BMP_pressure;BME280_temperature;BME280_humidity;BME280_pressure;Samples;Min_cycle;Max_cycle;Signal;HPM_P1;HPM_P2
2021/03/25 00:01:16;;;;;;;42.70;16.30;;;;;;;;;;4980285;28;20058;-60
2021/03/25 00:03:44;;;;;;;43.65;15.25;;;;;;;;;;4986344;28;20141;-62
2021/03/25 00:06:11;;;;;;;42.38;15.77;;;;;;;;;;5000303;28;20061;-60
2021/03/25 00:08:37;;;;;;;36.50;14.73;;;;;;;;;;4986691;28;20485;-63
2021/03/25 00:11:03;;;;;;;42.60;16.10;;;;;;;;;;4986631;28;20068;-59
2021/03/25 00:13:29;;;;;;;42.85;16.13;;;;;;;;;;5026982;28;20037;-65
2021/03/25 00:15:56;;;;;;;43.70;17.15;;;;;;;;;;5021684;28;20195;-62
2021/03/25 00:18:22;;;;;;;44.15;16.95;;;;;;;;;;5003682;28;20049;-59
2021/03/25 00:20:48;;;;;;;41.45;15.95;;;;;;;;;;4988209;28;20049;-61
2021/03/25 00:23:15;;;;;;;41.85;18.08;;;;;;;;;;5018854;28;20053;-61
2021/03/25 00:25:44;;;;;;;40.10;16.00;;;;;;;;;;5024711;28;20149;-60
2021/03/25 00:28:11;;;;;;;42.90;17.08;;;;;;;;;;4985974;28;20050;-62
2021/03/25 00:30:37;;;;;;;51.72;18.42;;;;;;;;;;4985084;28;20050;-62
2021/03/25 00:33:04;;;;;;;47.70;20.65;;;;;;;;;;4983183;28;20049;-60
2021/03/25 00:35:31;;;;;;;48.20;19.20;;;;;;;;;;4986140;28;20035;-61
2021/03/25 00:37:57;;;;;;;44.90;17.95;;;;;;;;;;4993725;28;20069;-60
2021/03/25 00:40:24;;;;;;;39.97;17.55;;;;;;;;;;5005659;28;20038;-62
2021/03/25 00:42:50;;;;;;;46.35;16.77;;;;;;;;;;4994415;28;20045;-63
2021/03/25 00:45:24;;;;;;;39.85;16.55;;;;;;;;;;4996564;28;20054;-61
2021/03/25 00:47:50;;;;;;;35.67;15.30;;;;;;;;;;4999225;28;20046;-63
2021/03/25 00:50:19;;;;;;;42.05;17.00;;;;;;;;;;4985226;28;20056;-60
2021/03/25 00:52:45;;;;;;;37.85;16.23;;;;;;;;;;4981366;28;20061;-60
2021/03/25 00:55:12;;;;;;;39.05;16.65;;;;;;;;;;4986679;28;20042;-60
2021/03/25 00:57:39;;;;;;;48.90;17.52;;;;;;;;;;4981723;28;20058;-62
2021/03/25 01:00:05;;;;;;;42.38;17.42;;;;;;;;;;5003305;28;20077;-60
2021/03/25 01:02:31;;;;;;;44.60;17.08;;;;;;;;;;4985836;28;20061;-62
2021/03/25 01:04:57;;;;;;;41.83;16.33;;;;;;;;;;5000726;28;20046;-62
2021/03/25 01:07:24;;;;;;;44.63;16.70;;;;;;;;;;4985624;28;20052;-63
2021/03/25 01:09:50;;;;;;;39.78;16.65;;;;;;;;;;4983663;28;20050;-61
2021/03/25 01:12:16;;;;;;;36.33;16.40;;;;;;;;;;5002871;28;20073;-63
2021/03/25 01:14:43;;;;;;;44.60;17.67;;;;;;;;;;4983310;28;20039;-63
2021/03/25 01:17:09;;;;;;;46.85;17.35;;;;;;;;;;4985832;28;20042;-62
2021/03/25 01:19:35;;;;;;;43.95;17.88;;;;;;;;;;4981118;28;20068;-63
2021/03/25 01:22:01;;;;;;;43.53;16.95;;;;;;;;;;4986040;28;20090;-63
2021/03/25 01:24:28;;;;;;;45.65;17.58;;;;;;;;;;4982234;28;20119;-63
2021/03/25 01:26:54;;;;;;;40.25;16.52;;;;;;;;;;4986107;28;20061;-61
2021/03/25 01:29:20;;;;;;;49.58;17.10;;;;;;;;;;4983539;28;20082;-61
2021/03/25 01:31:47;;;;;;;41.55;17.42;;;;;;;;;;5002213;28;20042;-60
2021/03/25 01:34:15;;;;;;;44.35;17.25;;;;;;;;;;4997969;28;20091;-60
2021/03/25 01:36:41;;;;;;;43.17;16.90;;;;;;;;;;4986667;28;20038;-62
2021/03/25 01:39:07;;;;;;;44.85;18.30;;;;;;;;;;4998708;28;20042;-62
2021/03/25 01:41:35;;;;;;;42.80;17.50;;;;;;;;;;5005050;28;20042;-63
2021/03/25 01:44:01;;;;;;;47.28;17.65;;;;;;;;;;4986762;28;20034;-63
2021/03/25 01:46:28;;;;;;;48.72;18.40;;;;;;;;;;4984659;28;20050;-60
2021/03/25 01:48:58;;;;;;;49.63;19.85;;;;;;;;;;4985661;28;20150;-62
2021/03/25 01:51:30;;;;;;;47.05;18.38;;;;;;;;;;4981700;28;20077;-62
2021/03/25 01:54:08;;;;;;;56.25;19.80;;;;;;;;;;4985381;28;20041;-62
2021/03/25 01:56:36;;;;;;;51.25;18.77;;;;;;;;;;5014775;28;20056;-62
2021/03/25 01:59:21;;;;;;;49.28;20.80;;;;;;;;;;5005701;28;20037;-62
2021/03/25 02:01:51;;;;;;;53.08;18.90;;;;;;;;;;4985110;28;20034;-60
2021/03/25 02:04:25;;;;;;;65.35;20.73;;;;;;;;;;4984145;28;20054;-63
2021/03/25 02:07:00;;;;;;;52.75;20.95;;;;;;;;;;4981146;28;20173;-62
2021/03/25 02:09:36;;;;;;;53.03;20.50;;;;;;;;;;4984632;28;20480;-63
2021/03/25 02:12:06;;;;;;;55.25;21.08;;;;;;;;;;4982539;28;20070;-63
2021/03/25 02:14:35;;;;;;;51.85;20.85;;;;;;;;;;5002203;28;20042;-63
2021/03/25 02:17:03;;;;;;;47.88;18.60;;;;;;;;;;4982395;28;20034;-63
2021/03/25 02:19:57;;;;;;;46.35;18.63;;;;;;;;;;4984593;28;20062;-63
2021/03/25 02:22:36;;;;;;;52.45;20.15;;;;;;;;;;4979167;28;20058;-62
2021/03/25 02:25:04;;;;;;;61.03;20.98;;;;;;;;;;5005756;28;20038;-62
2021/03/25 02:27:37;;;;;;;44.65;19.35;;;;;;;;;;5001106;28;20042;-63
2021/03/25 02:30:05;;;;;;;44.35;18.70;;;;;;;;;;4997340;28;20034;-63
2021/03/25 02:32:34;;;;;;;51.40;19.60;;;;;;;;;;4992357;28;20124;-61
2021/03/25 02:35:02;;;;;;;;;;;;;;;;;;4986977;28;20045;-62
2021/03/25 02:37:29;;;;;;;41.35;18.33;;;;;;;;;;4993151;28;19933;-62
2021/03/25 02:39:57;;;;;;;52.58;19.02;;;;;;;;;;5025309;28;20042;-63
2021/03/25 02:42:25;;;;;;;55.00;21.25;;;;;;;;;;5002778;28;20049;-63
2021/03/25 02:44:52;;;;;;;54.13;19.07;;;;;;;;;;5007267;28;20100;-63
2021/03/25 02:47:19;;;;;;;47.03;19.35;;;;;;;;;;5003489;28;20109;-59
2021/03/25 02:49:49;;;;;;;50.97;20.10;;;;;;;;;;5007650;28;20049;-62
2021/03/25 02:52:17;;;;;;;43.70;19.52;;;;;;;;;;4999551;28;20073;-59
2021/03/25 02:54:45;;;;;;;54.10;18.95;;;;;;;;;;5005659;28;20081;-60
2021/03/25 02:57:13;;;;;;;53.73;21.30;;;;;;;;;;4984542;28;20046;-60
2021/03/25 02:59:40;;;;;;;49.10;19.67;;;;;;;;;;4987643;28;20046;-60
2021/03/25 03:02:11;;;;;;;57.67;19.85;;;;;;;;;;5000460;28;20294;-61
2021/03/25 03:04:39;;;;;;;52.13;19.58;;;;;;;;;;4985504;28;20046;-60
2021/03/25 03:07:09;;;;;;;50.53;20.65;;;;;;;;;;4988182;28;20046;-60
2021/03/25 03:09:36;;;;;;;51.38;20.85;;;;;;;;;;5001690;28;20160;-61
2021/03/25 03:12:04;;;;;;;50.03;20.50;;;;;;;;;;5004849;28;20038;-62
2021/03/25 03:14:32;;;;;;;54.28;21.35;;;;;;;;;;4984420;28;20045;-63
2021/03/25 03:17:01;;;;;;;56.70;21.13;;;;;;;;;;4987908;28;20053;-60
2021/03/25 03:19:29;;;;;;;52.47;20.05;;;;;;;;;;4984684;28;20034;-63
2021/03/25 03:21:55;;;;;;;;;;;;;;;;;;4986330;28;20050;-63
2021/03/25 03:24:24;;;;;;;46.67;17.58;;;;;;;;;;4999649;28;19917;-62
2021/03/25 03:26:52;;;;;;;50.63;20.10;;;;;;;;;;4986710;28;20050;-62
2021/03/25 03:29:18;;;;;;;56.33;21.20;;;;;;;;;;5000436;28;20038;-62
2021/03/25 03:31:45;;;;;;;56.80;20.73;;;;;;;;;;4979243;28;20046;-62
2021/03/25 03:34:14;;;;;;;57.58;20.92;;;;;;;;;;4985226;28;20081;-61
2021/03/25 03:36:41;;;;;;;54.30;19.77;;;;;;;;;;4985873;28;20115;-62
2021/03/25 03:39:10;;;;;;;50.83;20.38;;;;;;;;;;4985470;28;20027;-62
2021/03/25 03:41:51;;;;;;;55.20;21.38;;;;;;;;;;5024465;28;20050;-61
2021/03/25 03:44:22;;;;;;;50.50;21.60;;;;;;;;;;4987327;28;20038;-61
2021/03/25 03:46:48;;;;;;;54.80;21.42;;;;;;;;;;4985942;28;20046;-62
2021/03/25 03:49:16;;;;;;;65.10;21.48;;;;;;;;;;4983401;28;20046;-62
2021/03/25 03:51:44;;;;;;;47.42;19.15;;;;;;;;;;4986915;28;20121;-62
2021/03/25 03:54:11;;;;;;;55.45;20.88;;;;;;;;;;4986433;28;20123;-63
2021/03/25 03:56:41;;;;;;;55.60;20.20;;;;;;;;;;5002159;28;20045;-62
2021/03/25 03:59:10;;;;;;;61.35;21.85;;;;;;;;;;5006538;28;20119;-62
2021/03/25 04:01:37;;;;;;;53.05;20.60;;;;;;;;;;5000575;28;20061;-61
2021/03/25 04:04:05;;;;;;;54.08;20.58;;;;;;;;;;5006484;28;20041;-64
2021/03/25 04:06:34;;;;;;;58.90;20.70;;;;;;;;;;4989442;28;20049;-62
2021/03/25 04:09:02;;;;;;;53.85;21.98;;;;;;;;;;4986887;28;20038;-61
2021/03/25 04:11:30;;;;;;;47.20;18.02;;;;;;;;;;4983730;28;20057;-61
2021/03/25 04:14:00;;;;;;;56.15;22.63;;;;;;;;;;4986323;28;20048;-62
2021/03/25 04:16:27;;;;;;;57.65;21.15;;;;;;;;;;5011429;28;20045;-60
2021/03/25 04:18:56;;;;;;;55.50;22.48;;;;;;;;;;5005538;28;20034;-63
2021/03/25 04:21:24;;;;;;;49.88;20.70;;;;;;;;;;5003088;28;20034;-65
2021/03/25 04:23:51;;;;;;;47.30;20.10;;;;;;;;;;5023949;28;20041;-65
2021/03/25 04:26:20;;;;;;;57.17;20.42;;;;;;;;;;4997094;28;20051;-63
2021/03/25 04:28:48;;;;;;;50.42;20.33;;;;;;;;;;4986808;28;20049;-65
2021/03/25 04:31:15;;;;;;;57.40;21.42;;;;;;;;;;4983607;28;20113;-65
2021/03/25 04:33:41;;;;;;;50.78;20.15;;;;;;;;;;4987787;28;20034;-66
2021/03/25 04:36:11;;;;;;;55.92;22.83;;;;;;;;;;4983990;28;20030;-64
2021/03/25 04:38:39;;;;;;;53.03;19.60;;;;;;;;;;4989742;28;20049;-62
2021/03/25 04:41:05;;;;;;;56.20;21.60;;;;;;;;;;4988247;28;20141;-62
2021/03/25 04:43:31;;;;;;;52.83;20.48;;;;;;;;;;4990203;28;20053;-63
2021/03/25 04:46:00;;;;;;;50.00;20.25;;;;;;;;;;5023845;28;20046;-65
2021/03/25 04:48:29;;;;;;;57.28;20.67;;;;;;;;;;4999556;28;20041;-65
2021/03/25 04:51:00;;;;;;;48.72;19.85;;;;;;;;;;5003836;28;20038;-61
2021/03/25 04:53:27;;;;;;;49.72;21.08;;;;;;;;;;4987040;28;20281;-62
2021/03/25 04:55:54;;;;;;;50.33;20.50;;;;;;;;;;4987151;28;20055;-60
2021/03/25 04:58:24;;;;;;;52.88;20.80;;;;;;;;;;4982769;28;20046;-59
2021/03/25 05:00:50;;;;;;;59.15;21.40;;;;;;;;;;5003860;28;20045;-61
2021/03/25 05:03:19;;;;;;;53.45;21.33;;;;;;;;;;4993003;28;20053;-62
2021/03/25 05:05:47;;;;;;;49.67;20.25;;;;;;;;;;5021740;28;20130;-62
2021/03/25 05:08:16;;;;;;;55.67;20.50;;;;;;;;;;4993447;28;20054;-62
2021/03/25 05:10:45;;;;;;;53.78;20.65;;;;;;;;;;4985896;28;20038;-60
2021/03/25 05:13:21;;;;;;;54.85;20.63;;;;;;;;;;4983224;28;20026;-62
2021/03/25 05:15:48;;;;;;;52.20;19.15;;;;;;;;;;4985739;28;20049;-62
2021/03/25 05:18:16;;;;;;;47.13;20.00;;;;;;;;;;4984386;28;20045;-62
2021/03/25 05:20:43;;;;;;;46.05;19.65;;;;;;;;;;4985717;28;20057;-62
2021/03/25 05:23:17;;;;;;;46.83;19.65;;;;;;;;;;5001361;28;20054;-62
2021/03/25 05:25:46;;;;;;;51.30;20.95;;;;;;;;;;5002218;28;20034;-63
2021/03/25 05:28:15;;;;;;;58.88;21.63;;;;;;;;;;5016129;28;20046;-61
2021/03/25 05:30:42;;;;;;;50.40;19.83;;;;;;;;;;4984346;28;20057;-61
2021/03/25 05:33:10;;;;;;;48.67;18.52;;;;;;;;;;4993904;28;20029;-61
2021/03/25 05:35:39;;;;;;;55.15;20.58;;;;;;;;;;4985745;28;20131;-63
2021/03/25 05:38:05;;;;;;;52.70;19.23;;;;;;;;;;4984975;28;20050;-61
2021/03/25 05:40:35;;;;;;;49.65;19.73;;;;;;;;;;4983707;28;20046;-59
2021/03/25 05:43:14;;;;;;;47.55;19.95;;;;;;;;;;5002509;28;20172;-61
2021/03/25 05:45:52;;;;;;;58.55;20.52;;;;;;;;;;5003346;28;20050;-59
2021/03/25 05:48:32;;;;;;;50.35;19.60;;;;;;;;;;4985905;28;20046;-62
2021/03/25 05:51:02;;;;;;;52.85;19.67;;;;;;;;;;4982771;28;20384;-59
2021/03/25 05:53:34;;;;;;;53.88;19.50;;;;;;;;;;4985250;28;20037;-62
2021/03/25 05:56:10;;;;;;;59.42;20.55;;;;;;;;;;4982317;28;20053;-60
2021/03/25 05:58:38;;;;;;;49.85;19.48;;;;;;;;;;4985525;28;20053;-60
2021/03/25 06:01:18;;;;;;;55.65;20.92;;;;;;;;;;5015474;28;20060;-60
2021/03/25 06:03:50;;;;;;;55.97;18.90;;;;;;;;;;5021467;28;20487;-60
2021/03/25 06:06:20;;;;;;;50.05;19.35;;;;;;;;;;4989326;28;20030;-59
2021/03/25 06:08:48;;;;;;;52.05;20.38;;;;;;;;;;4987679;28;20087;-61
2021/03/25 06:11:20;;;;;;;54.17;19.55;;;;;;;;;;4999198;28;20653;-61
2021/03/25 06:13:49;;;;;;;57.78;20.77;;;;;;;;;;4993864;28;20057;-62
2021/03/25 06:16:27;;;;;;;49.72;18.60;;;;;;;;;;4998269;28;20057;-62
2021/03/25 06:19:00;;;;;;;61.07;20.50;;;;;;;;;;4994207;28;20042;-62
2021/03/25 06:21:30;;;;;;;56.30;18.70;;;;;;;;;;4997356;28;20045;-62
2021/03/25 06:24:03;;;;;;;52.38;21.30;;;;;;;;;;4993195;28;20120;-63
2021/03/25 06:26:34;;;;;;;58.80;21.08;;;;;;;;;;4995326;28;20045;-62
2021/03/25 06:29:03;;;;;;;56.88;21.48;;;;;;;;;;5015882;28;20033;-62
2021/03/25 06:31:49;;;;;;;52.75;21.00;;;;;;;;;;5014678;28;20042;-62
2021/03/25 06:34:20;;;;;;;55.33;19.58;;;;;;;;;;4996202;28;20045;-62
2021/03/25 06:36:50;;;;;;;57.42;20.58;;;;;;;;;;5007916;28;20105;-60
2021/03/25 06:39:20;;;;;;;56.40;20.92;;;;;;;;;;5004022;28;20110;-60
2021/03/25 06:41:51;;;;;;;56.75;20.77;;;;;;;;;;4990821;28;20042;-62
2021/03/25 06:44:20;;;;;;;62.13;20.38;;;;;;;;;;5002556;28;20098;-62
2021/03/25 06:46:46;;;;;;;55.55;19.90;;;;;;;;;;4992152;28;20034;-61
2021/03/25 06:49:19;;;;;;;57.22;21.38;;;;;;;;;;4996947;28;20183;-63
2021/03/25 06:51:45;;;;;;;54.85;19.92;;;;;;;;;;4991035;28;20038;-62
2021/03/25 06:54:14;;;;;;;57.50;21.27;;;;;;;;;;5014081;28;20063;-61
2021/03/25 06:56:41;;;;;;;49.70;19.13;;;;;;;;;;4992155;28;20038;-63
2021/03/25 06:59:09;;;;;;;50.50;19.00;;;;;;;;;;5015090;28;20057;-62
2021/03/25 07:01:37;;;;;;;56.42;21.23;;;;;;;;;;4997878;28;20081;-60
2021/03/25 07:04:06;;;;;;;58.77;20.57;;;;;;;;;;4984203;28;20059;-59
2021/03/25 07:06:33;;;;;;;61.90;20.20;;;;;;;;;;4970894;28;20074;-62
2021/03/25 07:09:00;;;;;;;59.70;22.20;;;;;;;;;;4970751;28;20039;-62
2021/03/25 07:11:27;;;;;;;55.28;22.80;;;;;;;;;;4975069;28;20136;-63
2021/03/25 07:13:57;;;;;;;68.60;22.73;;;;;;;;;;4971862;28;20059;-59
2021/03/25 07:16:25;;;;;;;63.75;23.52;;;;;;;;;;4972816;28;20046;-61
2021/03/25 07:18:56;;;;;;;61.20;22.13;;;;;;;;;;4971548;28;20043;-61
2021/03/25 07:21:27;;;;;;;61.33;22.50;;;;;;;;;;4973356;28;20043;-62
2021/03/25 07:23:54;;;;;;;64.13;23.92;;;;;;;;;;4977090;28;20042;-63
2021/03/25 07:26:28;;;;;;;64.47;23.30;;;;;;;;;;4974447;28;20042;-62
2021/03/25 07:28:58;;;;;;;62.25;22.75;;;;;;;;;;4966404;28;20049;-59
2021/03/25 07:31:29;;;;;;;61.83;21.98;;;;;;;;;;4979914;28;20129;-62
2021/03/25 07:33:55;;;;;;;59.85;23.17;;;;;;;;;;4973341;28;20125;-60
2021/03/25 07:36:21;;;;;;;63.55;23.00;;;;;;;;;;4967089;28;20031;-59
2021/03/25 07:38:47;;;;;;;66.38;23.15;;;;;;;;;;4971071;28;20038;-62
2021/03/25 07:41:17;;;;;;;61.70;22.88;;;;;;;;;;4963333;28;20043;-62
2021/03/25 07:43:50;;;;;;;61.45;22.35;;;;;;;;;;4959953;28;20050;-61
2021/03/25 07:46:18;;;;;;;53.60;20.90;;;;;;;;;;4982302;28;20053;-62
2021/03/25 07:48:55;;;;;;;59.20;21.80;;;;;;;;;;4977778;28;20952;-62
2021/03/25 07:51:21;;;;;;;54.95;21.30;;;;;;;;;;4963847;28;20058;-62
2021/03/25 07:53:47;;;;;;;52.60;22.80;;;;;;;;;;4961658;28;20038;-63
2021/03/25 07:56:14;;;;;;;56.88;20.17;;;;;;;;;;4984081;28;20047;-60
2021/03/25 07:58:41;;;;;;;63.30;22.67;;;;;;;;;;4983104;28;20053;-62
2021/03/25 08:01:09;;;;;;;54.78;22.38;;;;;;;;;;4960244;28;20500;-59
2021/03/25 08:03:45;;;;;;;50.28;21.38;;;;;;;;;;4967260;28;20047;-62
2021/03/25 08:06:20;;;;;;;56.63;20.48;;;;;;;;;;4999735;28;20038;-62
2021/03/25 08:08:58;;;;;;;53.60;21.10;;;;;;;;;;4986759;28;20042;-62
2021/03/25 08:11:24;;;;;;;55.55;21.58;;;;;;;;;;4999036;28;20034;-62
2021/03/25 08:13:52;;;;;;;53.40;20.50;;;;;;;;;;4987040;28;20116;-61
2021/03/25 08:16:18;;;;;;;63.65;21.80;;;;;;;;;;4983273;28;20089;-61
2021/03/25 08:18:51;;;;;;;59.38;21.15;;;;;;;;;;4986516;28;20090;-62
2021/03/25 08:21:24;;;;;;;49.13;18.88;;;;;;;;;;5013226;28;20045;-62
2021/03/25 08:24:08;;;;;;;50.90;19.60;;;;;;;;;;5004942;28;20053;-62
2021/03/25 08:26:39;;;;;;;57.90;21.75;;;;;;;;;;4987776;28;20037;-60
2021/03/25 08:29:09;;;;;;;44.33;18.92;;;;;;;;;;4987414;28;20053;-62
2021/03/25 08:31:39;;;;;;;54.25;20.35;;;;;;;;;;5000800;28;20046;-61
2021/03/25 08:34:38;;;;;;;63.30;21.00;;;;;;;;;;4986649;28;20057;-62
2021/03/25 08:37:11;;;;;;;43.33;17.00;;;;;;;;;;4902346;29;20036;-59
2021/03/25 08:39:43;;;;;;;62.67;21.27;;;;;;;;;;4907805;29;20044;-61
2021/03/25 08:42:15;;;;;;;58.97;21.08;;;;;;;;;;4972952;28;20050;-61
2021/03/25 08:44:43;;;;;;;56.83;22.83;;;;;;;;;;5007161;28;20057;-61
2021/03/25 08:47:12;;;;;;;64.20;21.15;;;;;;;;;;4983144;28;20049;-60
2021/03/25 08:49:39;;;;;;;55.83;21.85;;;;;;;;;;4986054;28;20046;-61
2021/03/25 08:52:07;;;;;;;48.67;20.40;;;;;;;;;;4982468;28;20050;-62
2021/03/25 08:54:36;;;;;;;58.17;21.77;;;;;;;;;;4986490;28;20049;-62
2021/03/25 08:57:02;;;;;;;;;;;;;;;;;;4992502;28;20046;-60
2021/03/25 08:59:30;;;;;;;54.65;20.05;;;;;;;;;;5004903;28;19927;-62
2021/03/25 09:02:01;;;;;;;48.83;19.98;;;;;;;;;;5016694;28;20037;-61
2021/03/25 09:04:31;;;;;;;51.92;19.58;;;;;;;;;;4987051;28;20088;-62
2021/03/25 09:06:57;;;;;;;53.00;19.30;;;;;;;;;;4982747;28;20042;-62
2021/03/25 09:09:38;;;;;;;45.90;18.50;;;;;;;;;;4985601;28;20058;-60
2021/03/25 09:12:09;;;;;;;47.15;18.42;;;;;;;;;;4981531;28;20053;-60
2021/03/25 09:14:36;;;;;;;47.13;18.65;;;;;;;;;;4984358;28;20056;-62
2021/03/25 09:17:03;;;;;;;46.53;18.40;;;;;;;;;;5000987;28;20087;-59
2021/03/25 09:19:30;;;;;;;47.83;20.05;;;;;;;;;;4985758;28;20038;-61
2021/03/25 09:21:57;;;;;;;44.47;17.55;;;;;;;;;;4985742;28;20049;-60
2021/03/25 09:24:24;;;;;;;42.53;18.35;;;;;;;;;;4983271;28;20034;-62
2021/03/25 09:26:58;;;;;;;52.03;20.05;;;;;;;;;;4984088;28;20041;-60
2021/03/25 09:29:26;;;;;;;46.53;17.02;;;;;;;;;;4983305;28;20161;-61
2021/03/25 09:32:11;;;;;;;42.53;17.80;;;;;;;;;;4984936;28;20038;-61
2021/03/25 09:34:42;;;;;;;41.58;15.95;;;;;;;;;;4980659;28;20034;-62
2021/03/25 09:37:20;;;;;;;40.45;14.88;;;;;;;;;;4984112;28;20042;-61
2021/03/25 09:40:03;;;;;;;42.80;15.70;;;;;;;;;;4980880;28;20050;-60
2021/03/25 09:42:30;;;;;;;40.17;16.52;;;;;;;;;;4985245;28;20038;-61
2021/03/25 09:44:56;;;;;;;37.72;15.13;;;;;;;;;;4998406;28;20046;-60
2021/03/25 09:47:28;;;;;;;36.10;15.20;;;;;;;;;;5001351;28;20044;-61
2021/03/25 09:49:55;;;;;;;38.50;14.77;;;;;;;;;;4981533;28;20208;-62
2021/03/25 09:52:28;;;;;;;33.17;15.87;;;;;;;;;;4984135;28;20042;-62
2021/03/25 09:55:13;;;;;;;38.03;16.45;;;;;;;;;;4994380;28;20048;-62
2021/03/25 09:57:40;;;;;;;39.45;16.00;;;;;;;;;;5005473;28;20030;-60
2021/03/25 10:00:10;;;;;;;33.15;13.63;;;;;;;;;;4989638;28;20056;-62
2021/03/25 10:02:52;;;;;;;36.88;13.90;;;;;;;;;;4984140;28;20038;-63
2021/03/25 10:05:33;;;;;;;31.33;12.30;;;;;;;;;;4993553;28;20038;-60
2021/03/25 10:08:00;;;;;;;30.17;12.18;;;;;;;;;;5021727;28;20042;-61
2021/03/25 10:10:32;;;;;;;26.25;10.80;;;;;;;;;;4988950;28;20045;-60
2021/03/25 10:13:13;;;;;;;27.05;10.60;;;;;;;;;;4985237;28;20039;-61
2021/03/25 10:15:46;;;;;;;21.75;10.32;;;;;;;;;;4976375;28;20069;-62
2021/03/25 10:18:14;;;;;;;32.33;12.32;;;;;;;;;;4983937;28;20065;-63
2021/03/25 10:20:51;;;;;;;30.30;10.68;;;;;;;;;;4980883;28;20179;-63
2021/03/25 10:23:18;;;;;;;29.17;11.20;;;;;;;;;;4985188;28;20053;-61
2021/03/25 10:25:44;;;;;;;26.77;11.95;;;;;;;;;;4982985;28;20034;-63
2021/03/25 10:28:12;;;;;;;38.97;13.48;;;;;;;;;;5003041;28;20045;-63
2021/03/25 10:30:39;;;;;;;30.25;11.35;;;;;;;;;;4982280;28;20045;-63
2021/03/25 10:33:07;;;;;;;29.55;13.20;;;;;;;;;;4986294;28;20099;-62
2021/03/25 10:35:34;;;;;;;33.50;12.82;;;;;;;;;;4983143;28;20038;-63
2021/03/25 10:38:05;;;;;;;34.92;14.32;;;;;;;;;;5002675;28;20158;-60
2021/03/25 10:40:33;;;;;;;30.15;13.52;;;;;;;;;;4981101;28;20089;-63
2021/03/25 10:43:00;;;;;;;39.30;15.00;;;;;;;;;;4986900;28;20042;-61
2021/03/25 10:45:37;;;;;;;26.92;12.07;;;;;;;;;;5018685;28;20046;-60
2021/03/25 10:48:05;;;;;;;30.35;13.05;;;;;;;;;;5010181;28;20042;-62
2021/03/25 10:50:34;;;;;;;30.00;13.20;;;;;;;;;;5005406;28;20044;-60
2021/03/25 10:53:05;;;;;;;27.55;13.60;;;;;;;;;;5004887;28;20033;-63
2021/03/25 10:55:36;;;;;;;30.02;12.25;;;;;;;;;;5006122;28;20057;-61
2021/03/25 10:58:03;;;;;;;25.38;12.20;;;;;;;;;;5003591;28;20061;-60
2021/03/25 11:00:31;;;;;;;26.77;12.20;;;;;;;;;;5006704;28;20042;-62
2021/03/25 11:02:58;;;;;;;27.80;13.65;;;;;;;;;;4987163;28;20038;-62
2021/03/25 11:05:26;;;;;;;30.20;12.82;;;;;;;;;;4980894;28;20055;-63
2021/03/25 11:07:53;;;;;;;31.23;11.93;;;;;;;;;;4973718;28;20097;-62
2021/03/25 11:10:22;;;;;;;28.00;11.45;;;;;;;;;;4984149;28;20085;-63
2021/03/25 11:12:54;;;;;;;20.98;9.77;;;;;;;;;;4977272;28;20037;-63
2021/03/25 11:15:22;;;;;;;20.83;9.75;;;;;;;;;;4983664;28;20101;-62
2021/03/25 11:17:48;;;;;;;28.00;10.07;;;;;;;;;;4979769;28;20054;-61
2021/03/25 11:20:15;;;;;;;20.27;9.60;;;;;;;;;;4984122;28;20046;-60
2021/03/25 11:22:41;;;;;;;22.10;9.43;;;;;;;;;;4978838;28;20385;-61
2021/03/25 11:25:12;;;;;;;19.52;9.40;;;;;;;;;;4982569;28;20132;-61
2021/03/25 11:27:38;;;;;;;18.70;9.02;;;;;;;;;;4979914;28;20042;-63
2021/03/25 11:30:06;;;;;;;24.33;9.55;;;;;;;;;;4983174;28;20063;-60
2021/03/25 11:32:34;;;;;;;21.77;8.95;;;;;;;;;;4978006;28;20039;-62
2021/03/25 11:35:19;;;;;;;19.58;9.38;;;;;;;;;;4964376;28;20086;-62
2021/03/25 11:37:46;;;;;;;22.77;9.70;;;;;;;;;;4960801;28;20106;-63
2021/03/25 11:40:15;;;;;;;27.45;11.40;;;;;;;;;;4963524;28;20046;-62
2021/03/25 11:42:41;;;;;;;22.25;10.70;;;;;;;;;;4957590;28;20043;-62
2021/03/25 11:45:28;;;;;;;22.50;9.68;;;;;;;;;;4963037;28;20125;-62
2021/03/25 11:47:54;;;;;;;15.18;7.50;;;;;;;;;;4960516;28;20053;-63
2021/03/25 11:50:34;;;;;;;17.30;7.15;;;;;;;;;;4983934;28;20042;-62
2021/03/25 11:53:01;;;;;;;15.95;7.20;;;;;;;;;;4980701;28;20050;-60
2021/03/25 11:55:31;;;;;;;17.70;7.47;;;;;;;;;;4966167;28;20043;-60
2021/03/25 11:58:04;;;;;;;16.98;6.97;;;;;;;;;;4965817;28;20046;-62
2021/03/25 12:00:30;;;;;;;15.30;6.65;;;;;;;;;;4976936;28;20041;-62
2021/03/25 12:02:57;;;;;;;15.85;6.55;;;;;;;;;;4966179;28;20062;-62
2021/03/25 12:05:43;;;;;;;16.52;6.38;;;;;;;;;;4979186;28;20049;-62
2021/03/25 12:08:23;;;;;;;17.02;6.78;;;;;;;;;;4984863;28;20137;-62
2021/03/25 12:10:57;;;;;;;11.95;5.57;;;;;;;;;;4979704;28;20050;-63
2021/03/25 12:13:23;;;;;;;11.13;5.57;;;;;;;;;;4983653;28;20038;-63
2021/03/25 12:15:50;;;;;;;13.65;6.35;;;;;;;;;;4980455;28;20054;-62
2021/03/25 12:18:20;;;;;;;14.77;6.32;;;;;;;;;;4983654;28;20076;-62
2021/03/25 12:20:45;;;;;;;16.35;6.93;;;;;;;;;;4980688;28;20042;-62
2021/03/25 12:23:15;;;;;;;23.85;8.77;;;;;;;;;;4981310;28;20039;-62
2021/03/25 12:25:41;;;;;;;15.75;7.03;;;;;;;;;;4979974;28;20043;-62
2021/03/25 12:28:09;;;;;;;20.67;8.68;;;;;;;;;;4983680;28;20038;-63
2021/03/25 12:30:35;;;;;;;;;;;;;;;;;;4980717;28;20105;-62
2021/03/25 12:33:01;;;;;;;21.30;7.75;;;;;;;;;;4982806;28;19929;-63
2021/03/25 12:35:27;;;;;;;21.27;9.18;;;;;;;;;;4985380;28;20053;-62
2021/03/25 12:37:53;;;;;;;22.75;9.50;;;;;;;;;;5002095;28;20042;-60
2021/03/25 12:40:21;;;;;;;20.20;8.60;;;;;;;;;;4994248;28;20038;-60
2021/03/25 12:42:47;;;;;;;20.98;9.00;;;;;;;;;;4983582;28;20062;-62
2021/03/25 12:45:24;;;;;;;20.13;9.25;;;;;;;;;;4997565;28;20116;-61
2021/03/25 12:47:50;;;;;;;22.13;10.38;;;;;;;;;;4981061;28;20046;-62
2021/03/25 12:50:16;;;;;;;21.48;9.93;;;;;;;;;;4978252;28;20054;-62
2021/03/25 12:52:42;;;;;;;23.55;10.73;;;;;;;;;;4980208;28;20051;-62
2021/03/25 12:55:09;;;;;;;27.40;10.93;;;;;;;;;;4982474;28;20045;-63
2021/03/25 12:57:35;;;;;;;24.17;10.60;;;;;;;;;;4980517;28;20045;-63
2021/03/25 13:00:02;;;;;;;24.60;10.32;;;;;;;;;;4982149;28;20046;-64
2021/03/25 13:02:29;;;;;;;25.95;10.77;;;;;;;;;;4973885;28;20044;-63
2021/03/25 13:04:56;;;;;;;21.77;9.68;;;;;;;;;;4997412;28;20046;-60
2021/03/25 13:07:22;;;;;;;25.30;10.05;;;;;;;;;;4979426;28;20128;-62
2021/03/25 13:09:48;;;;;;;23.83;10.45;;;;;;;;;;4980568;28;20064;-63
2021/03/25 13:12:20;;;;;;;25.17;10.73;;;;;;;;;;4979144;28;20057;-62
2021/03/25 13:14:47;;;;;;;21.45;9.70;;;;;;;;;;4981729;28;20035;-62
2021/03/25 13:17:13;;;;;;;28.55;10.88;;;;;;;;;;4977876;28;20057;-62
2021/03/25 13:19:40;;;;;;;24.05;10.55;;;;;;;;;;4982654;28;20039;-59
2021/03/25 13:22:06;;;;;;;28.40;11.23;;;;;;;;;;4977690;28;22722;-62
2021/03/25 13:24:32;;;;;;;28.33;10.07;;;;;;;;;;4983794;28;20062;-62
2021/03/25 13:26:58;;;;;;;29.65;11.02;;;;;;;;;;4979481;28;20046;-61
2021/03/25 13:29:25;;;;;;;23.80;10.70;;;;;;;;;;4981437;28;20042;-62
2021/03/25 13:31:51;;;;;;;25.27;10.65;;;;;;;;;;4980457;28;20043;-59
2021/03/25 13:34:20;;;;;;;27.98;11.35;;;;;;;;;;4982243;28;20054;-61
2021/03/25 13:36:47;;;;;;;25.23;10.57;;;;;;;;;;4984667;28;20067;-62
2021/03/25 13:39:13;;;;;;;22.50;9.50;;;;;;;;;;4980234;28;20094;-62
2021/03/25 13:41:39;;;;;;;29.17;11.75;;;;;;;;;;4982754;28;20043;-62
2021/03/25 13:44:05;;;;;;;22.50;10.63;;;;;;;;;;4978963;28;20043;-62
2021/03/25 13:46:31;;;;;;;31.60;10.77;;;;;;;;;;5001963;28;20034;-61
2021/03/25 13:48:57;;;;;;;25.05;11.35;;;;;;;;;;4993309;28;20038;-63
2021/03/25 13:51:25;;;;;;;33.20;11.57;;;;;;;;;;5002380;28;20042;-61
2021/03/25 13:53:52;;;;;;;26.73;11.37;;;;;;;;;;4996059;28;20053;-60
2021/03/25 13:56:18;;;;;;;23.52;11.00;;;;;;;;;;5002463;28;20271;-62
2021/03/25 13:58:44;;;;;;;23.73;10.85;;;;;;;;;;4992671;28;20108;-63
2021/03/25 14:01:10;;;;;;;24.42;10.90;;;;;;;;;;4982203;28;20089;-62
2021/03/25 14:03:36;;;;;;;22.60;10.73;;;;;;;;;;4983387;28;20045;-63
2021/03/25 14:06:02;;;;;;;26.08;11.23;;;;;;;;;;5003393;28;20038;-64
2021/03/25 14:08:28;;;;;;;30.33;11.45;;;;;;;;;;5000826;28;20041;-61
2021/03/25 14:10:55;;;;;;;24.77;10.63;;;;;;;;;;5004469;28;20050;-60
2021/03/25 14:13:21;;;;;;;23.85;10.25;;;;;;;;;;5003914;28;20042;-62
2021/03/25 14:15:49;;;;;;;21.95;10.40;;;;;;;;;;4981778;28;20042;-62
2021/03/25 14:18:15;;;;;;;26.95;11.95;;;;;;;;;;5001700;28;20043;-60
2021/03/25 14:20:42;;;;;;;24.48;10.20;;;;;;;;;;4984107;28;20046;-63
2021/03/25 14:23:07;;;;;;;23.90;10.40;;;;;;;;;;4987418;28;20034;-64
2021/03/25 14:25:36;;;;;;;23.45;11.05;;;;;;;;;;4988791;28;20041;-64
2021/03/25 14:28:03;;;;;;;28.48;11.00;;;;;;;;;;5007091;28;20038;-63
2021/03/25 14:30:29;;;;;;;21.60;9.50;;;;;;;;;;4991270;28;20196;-62
2021/03/25 14:32:56;;;;;;;20.17;7.25;;;;;;;;;;4988360;28;20042;-61